createdAt,value
2017-10-19T00:00:16.928Z,19.70
2017-10-19T00:02:45.214Z,24.53
2017-10-19T00:05:14.072Z,22.53
2017-10-19T00:07:43.055Z,23.63
2017-10-19T00:10:12.198Z,22.80
2017-10-19T00:12:40.587Z,19.70
2017-10-19T00:15:09.789Z,24.43
2017-10-19T00:17:42.560Z,21.27
2017-10-19T00:20:11.737Z,19.17
2017-10-19T00:22:40.778Z,17.90
2017-10-19T00:25:12.634Z,24.60
2017-10-19T00:27:42.146Z,21.97
2017-10-19T00:30:10.558Z,19.47
2017-10-19T00:32:38.831Z,20.37
2017-10-19T00:35:07.299Z,18.20
2017-10-19T00:37:35.649Z,22.50
2017-10-19T00:40:04.060Z,20.07
2017-10-19T00:42:34.096Z,18.40
2017-10-19T00:45:02.843Z,16.50
2017-10-19T00:47:31.268Z,17.40
2017-10-19T00:49:59.616Z,19.50
2017-10-19T00:52:27.952Z,21.00
2017-10-19T00:54:56.239Z,19.97
2017-10-19T00:57:24.619Z,20.47
2017-10-19T00:59:52.922Z,18.90
2017-10-19T01:02:21.275Z,21.87
2017-10-19T01:04:49.809Z,16.77
2017-10-19T01:07:18.327Z,19.80
2017-10-19T01:09:46.626Z,18.93
2017-10-19T01:12:14.944Z,23.13
2017-10-19T01:14:43.263Z,21.33
2017-10-19T01:17:11.587Z,22.93
2017-10-19T01:19:39.921Z,18.20
2017-10-19T01:22:08.256Z,19.57
2017-10-19T01:24:37.721Z,17.00
2017-10-19T01:27:06.532Z,21.23
2017-10-19T01:29:34.819Z,20.83
2017-10-19T01:32:03.156Z,18.57
2017-10-19T01:34:31.490Z,19.30
2017-10-19T01:36:59.815Z,21.53
2017-10-19T01:39:28.134Z,18.60
2017-10-19T01:41:56.515Z,18.57
2017-10-19T01:44:24.832Z,18.17
2017-10-19T01:46:53.176Z,20.40
2017-10-19T01:49:23.113Z,21.83
2017-10-19T01:51:51.451Z,20.67
2017-10-19T01:54:19.748Z,18.70
2017-10-19T01:56:48.044Z,23.30
2017-10-19T01:59:16.333Z,21.10
2017-10-19T02:01:44.643Z,18.77
2017-10-19T02:04:13.047Z,21.33
2017-10-19T02:06:41.366Z,19.40
2017-10-19T02:09:09.758Z,20.60
2017-10-19T02:11:38.072Z,18.80
2017-10-19T02:14:06.340Z,19.37
2017-10-19T02:16:34.635Z,25.20
2017-10-19T02:19:02.972Z,23.93
2017-10-19T02:21:31.372Z,16.33
2017-10-19T02:23:59.655Z,19.83
2017-10-19T02:26:27.951Z,17.90
2017-10-19T02:28:56.215Z,18.80
2017-10-19T02:31:24.551Z,19.27
2017-10-19T02:33:52.828Z,17.73
2017-10-19T02:36:21.165Z,22.00
2017-10-19T02:38:49.497Z,20.70
2017-10-19T02:41:17.820Z,20.43
2017-10-19T02:43:46.116Z,21.97
2017-10-19T02:46:14.424Z,21.37
2017-10-19T02:48:42.752Z,19.60
2017-10-19T02:51:11.108Z,19.40
2017-10-19T02:53:39.464Z,20.70
2017-10-19T02:56:07.897Z,19.43
2017-10-19T02:58:36.189Z,17.87
2017-10-19T03:01:04.548Z,19.20
2017-10-19T03:03:32.868Z,27.53
2017-10-19T03:06:01.212Z,15.70
2017-10-19T03:08:29.529Z,21.20
2017-10-19T03:10:57.848Z,19.77
2017-10-19T03:13:26.178Z,18.10
2017-10-19T03:15:54.495Z,19.27
2017-10-19T03:18:22.755Z,18.70
2017-10-19T03:20:51.076Z,22.10
2017-10-19T03:23:19.392Z,21.33
2017-10-19T03:25:47.703Z,22.10
2017-10-19T03:28:16.028Z,20.70
2017-10-19T03:30:44.337Z,25.40
2017-10-19T03:33:12.775Z,22.60
2017-10-19T03:35:41.126Z,19.33
2017-10-19T03:38:10.376Z,21.57
2017-10-19T03:40:38.722Z,16.07
2017-10-19T03:43:07.047Z,18.67
2017-10-19T03:45:35.458Z,20.47
2017-10-19T03:48:03.764Z,18.00
2017-10-19T03:50:32.192Z,17.63
2017-10-19T03:53:00.521Z,18.30
2017-10-19T03:55:28.896Z,16.80
2017-10-19T03:57:57.215Z,21.63
2017-10-19T04:00:25.564Z,20.63
2017-10-19T04:02:53.946Z,14.50
2017-10-19T04:05:22.243Z,17.70
2017-10-19T04:07:50.544Z,18.77
2017-10-19T04:10:18.906Z,22.73
2017-10-19T04:12:47.246Z,22.63
2017-10-19T04:15:15.548Z,20.80
2017-10-19T04:17:43.817Z,22.13
2017-10-19T04:20:12.131Z,23.60
2017-10-19T04:22:40.567Z,17.73
2017-10-19T04:25:08.940Z,19.00
2017-10-19T04:27:37.250Z,21.67
2017-10-19T04:30:05.635Z,21.70
2017-10-19T04:32:33.944Z,19.80
2017-10-19T04:35:02.260Z,21.83
2017-10-19T04:37:30.829Z,20.90
2017-10-19T04:39:59.120Z,18.73
2017-10-19T04:42:27.486Z,23.10
2017-10-19T04:44:55.787Z,23.37
2017-10-19T04:47:24.112Z,22.33
2017-10-19T04:49:52.429Z,29.07
2017-10-19T04:52:20.930Z,24.30
2017-10-19T04:54:49.195Z,23.47
2017-10-19T04:57:17.534Z,24.60
2017-10-19T04:59:45.807Z,20.93
2017-10-19T05:02:14.245Z,22.83
2017-10-19T05:04:42.528Z,24.07
2017-10-19T05:07:10.863Z,19.40
2017-10-19T05:09:39.239Z,16.53
2017-10-19T05:12:07.789Z,21.10
2017-10-19T05:14:36.071Z,24.57
2017-10-19T05:17:04.416Z,40.03
2017-10-19T05:19:32.768Z,26.20
2017-10-19T05:22:01.104Z,34.90
2017-10-19T05:24:29.404Z,22.57
2017-10-19T05:26:57.761Z,22.60
2017-10-19T05:29:26.561Z,25.77
2017-10-19T05:31:54.999Z,29.07
2017-10-19T05:34:23.368Z,24.97
2017-10-19T05:36:51.734Z,27.13
2017-10-19T05:39:20.099Z,24.80
2017-10-19T05:41:48.529Z,28.73
2017-10-19T05:44:16.856Z,32.10
2017-10-19T05:46:45.200Z,30.20
2017-10-19T05:49:13.625Z,32.60
2017-10-19T05:51:41.929Z,27.50
2017-10-19T05:54:10.858Z,24.70
2017-10-19T05:56:39.199Z,28.43
2017-10-19T05:59:07.499Z,31.30
2017-10-19T06:01:36.404Z,33.13
2017-10-19T06:04:04.988Z,30.77
2017-10-19T06:06:33.408Z,29.83
2017-10-19T06:09:01.699Z,28.13
2017-10-19T06:11:30.072Z,33.40
2017-10-19T06:13:58.435Z,32.60
2017-10-19T06:16:26.761Z,37.73
2017-10-19T06:18:55.060Z,33.43
2017-10-19T06:21:23.374Z,34.17
2017-10-19T06:23:51.661Z,36.23
2017-10-19T06:26:20.141Z,39.37
2017-10-19T06:28:48.418Z,36.83
2017-10-19T06:31:16.751Z,40.33
2017-10-19T06:33:45.128Z,30.37
2017-10-19T06:36:13.839Z,34.57
2017-10-19T06:38:42.155Z,35.00
2017-10-19T06:41:10.533Z,32.00
2017-10-19T06:43:39.835Z,35.53
2017-10-19T06:46:08.155Z,37.67
2017-10-19T06:48:36.679Z,37.27
2017-10-19T06:51:05.048Z,33.17
2017-10-19T06:53:33.351Z,38.50
2017-10-19T06:56:01.643Z,33.67
2017-10-19T06:58:29.915Z,36.57
2017-10-19T07:00:58.224Z,32.40
2017-10-19T07:03:27.181Z,36.00
2017-10-19T07:05:55.855Z,30.77
2017-10-19T07:08:24.147Z,33.10
2017-10-19T07:10:53.382Z,32.07
2017-10-19T07:13:23.426Z,30.23
2017-10-19T07:15:52.147Z,40.83
2017-10-19T07:18:20.920Z,31.37
2017-10-19T07:20:49.557Z,34.30
2017-10-19T07:23:18.339Z,31.80
2017-10-19T07:25:46.753Z,35.03
2017-10-19T07:28:15.294Z,36.50
2017-10-19T07:30:43.701Z,34.97
2017-10-19T07:33:12.093Z,37.00
2017-10-19T07:35:40.583Z,41.10
2017-10-19T07:38:08.863Z,36.53
2017-10-19T07:40:37.215Z,31.20
2017-10-19T07:43:06.200Z,34.40
2017-10-19T07:45:34.538Z,37.27
2017-10-19T07:48:02.827Z,32.20
2017-10-19T07:50:31.256Z,38.40
2017-10-19T07:52:59.517Z,34.10
2017-10-19T07:55:27.824Z,38.00
2017-10-19T07:57:56.203Z,33.27
2017-10-19T08:00:24.683Z,34.67
2017-10-19T08:02:53.017Z,34.10
2017-10-19T08:05:21.619Z,40.77
2017-10-19T08:07:50.807Z,35.30
2017-10-19T08:10:20.767Z,32.97
2017-10-19T08:12:49.705Z,28.40
2017-10-19T08:15:18.964Z,33.60
2017-10-19T08:17:49.747Z,32.80
2017-10-19T08:20:18.787Z,28.33
2017-10-19T08:22:47.524Z,39.37
2017-10-19T08:25:16.594Z,31.70
2017-10-19T08:27:45.197Z,39.63
2017-10-19T08:30:13.800Z,31.20
2017-10-19T08:32:42.292Z,38.87
2017-10-19T08:35:10.789Z,32.87
2017-10-19T08:37:39.100Z,34.10
2017-10-19T08:40:07.520Z,38.87
2017-10-19T08:42:36.047Z,41.27
2017-10-19T08:45:04.561Z,46.00
2017-10-19T08:47:32.936Z,41.33
2017-10-19T08:50:01.208Z,41.90
2017-10-19T08:52:29.683Z,39.67
2017-10-19T08:55:02.328Z,38.30
2017-10-19T08:57:30.777Z,44.40
2017-10-19T08:59:58.361Z,38.23
2017-10-19T09:02:27.069Z,37.13
2017-10-19T09:04:56.413Z,37.07
2017-10-19T09:07:25.066Z,49.90
2017-10-19T09:09:53.345Z,36.90
2017-10-19T09:12:21.708Z,41.40
2017-10-19T09:14:50.053Z,43.70
2017-10-19T09:17:18.392Z,43.70
2017-10-19T09:19:48.139Z,40.57
2017-10-19T09:22:15.842Z,39.80
2017-10-19T09:24:43.967Z,37.67
2017-10-19T09:27:12.418Z,48.83
2017-10-19T09:29:40.835Z,55.93
2017-10-19T09:32:10.210Z,39.80
2017-10-19T09:34:38.724Z,41.20
2017-10-19T09:37:07.110Z,38.03
2017-10-19T09:39:35.551Z,38.83
2017-10-19T09:42:04.290Z,45.83
2017-10-19T09:44:32.624Z,39.07
2017-10-19T09:47:00.953Z,54.40
2017-10-19T09:49:29.288Z,38.13
2017-10-19T09:51:57.769Z,50.17
2017-10-19T09:54:26.113Z,39.30
2017-10-19T09:56:54.824Z,34.53
2017-10-19T09:59:23.384Z,37.00
2017-10-19T10:01:51.893Z,39.13
2017-10-19T10:04:20.364Z,43.47
2017-10-19T10:06:48.752Z,51.30
2017-10-19T10:09:17.088Z,37.57
2017-10-19T10:11:45.532Z,41.40
2017-10-19T10:14:13.959Z,49.50
2017-10-19T10:16:42.291Z,38.70
2017-10-19T10:19:10.604Z,41.57
2017-10-19T10:21:37.993Z,35.20
2017-10-19T10:24:06.198Z,35.10
2017-10-19T10:26:34.523Z,37.20
2017-10-19T10:29:01.946Z,42.20
2017-10-19T10:31:30.105Z,37.33
2017-10-19T10:33:58.447Z,36.37
2017-10-19T10:36:26.874Z,39.17
2017-10-19T10:38:55.588Z,47.60
2017-10-19T10:41:23.916Z,42.47
2017-10-19T10:43:52.412Z,50.30
2017-10-19T10:46:20.722Z,51.83
2017-10-19T10:48:49.049Z,49.47
2017-10-19T10:51:17.359Z,54.13
2017-10-19T10:53:45.876Z,47.83
2017-10-19T10:56:14.280Z,57.50
2017-10-19T10:58:42.712Z,51.57
2017-10-19T11:01:11.264Z,52.87
2017-10-19T11:03:39.959Z,49.97
2017-10-19T11:06:08.283Z,55.70
2017-10-19T11:08:36.656Z,44.23
2017-10-19T11:11:05.196Z,50.70
2017-10-19T11:13:33.612Z,52.43
2017-10-19T11:16:01.928Z,45.30
2017-10-19T11:18:30.358Z,42.20
2017-10-19T11:20:58.890Z,44.00
2017-10-19T11:23:28.068Z,40.60
2017-10-19T11:25:56.440Z,43.20
2017-10-19T11:28:24.913Z,40.13
2017-10-19T11:30:53.284Z,42.77
2017-10-19T11:33:21.695Z,33.80
2017-10-19T11:35:50.110Z,36.77
2017-10-19T11:38:18.428Z,40.53
2017-10-19T11:40:46.740Z,38.77
2017-10-19T11:43:15.016Z,39.87
2017-10-19T11:45:43.371Z,47.17
2017-10-19T11:48:11.885Z,31.23
2017-10-19T11:50:40.603Z,36.33
2017-10-19T11:53:08.894Z,34.70
2017-10-19T11:55:37.220Z,33.37
2017-10-19T11:58:05.524Z,33.93
2017-10-19T12:00:33.884Z,37.07
2017-10-19T12:03:02.327Z,40.10
2017-10-19T12:05:30.855Z,38.83
2017-10-19T12:07:59.173Z,31.60
2017-10-19T12:10:27.495Z,30.10
2017-10-19T12:12:55.799Z,33.43
2017-10-19T12:15:24.240Z,36.83
2017-10-19T12:17:52.672Z,28.57
2017-10-19T12:20:21.057Z,40.07
2017-10-19T12:22:49.385Z,25.43
2017-10-19T12:25:17.833Z,28.07
2017-10-19T12:27:46.152Z,32.00
2017-10-19T12:30:15.236Z,27.80
2017-10-19T12:32:43.710Z,36.80
2017-10-19T12:35:12.129Z,26.47
2017-10-19T12:37:40.516Z,29.70
2017-10-19T12:40:09.796Z,36.50
2017-10-19T12:42:39.244Z,34.40
2017-10-19T12:45:07.686Z,25.03
2017-10-19T12:47:36.072Z,30.40
2017-10-19T12:50:05.725Z,28.57
2017-10-19T12:52:34.403Z,25.87
2017-10-19T12:55:03.561Z,28.80
2017-10-19T12:57:32.059Z,28.93
2017-10-19T13:00:00.336Z,29.37
2017-10-19T13:02:29.393Z,31.03
2017-10-19T13:04:57.942Z,33.40
2017-10-19T13:07:26.259Z,25.97
2017-10-19T13:09:54.535Z,26.33
2017-10-19T13:12:23.001Z,26.53
2017-10-19T13:14:51.295Z,24.13
2017-10-19T13:17:20.132Z,28.17
2017-10-19T13:19:48.571Z,21.27
2017-10-19T13:22:16.888Z,32.00
2017-10-19T13:24:45.287Z,25.47
2017-10-19T13:27:13.720Z,22.77
2017-10-19T13:29:42.075Z,25.03
2017-10-19T13:32:10.412Z,23.60
2017-10-19T13:34:38.703Z,30.00
2017-10-19T13:37:07.028Z,23.80
2017-10-19T13:39:35.332Z,25.20
2017-10-19T13:42:03.690Z,24.10
2017-10-19T13:44:32.336Z,22.40
2017-10-19T13:47:00.686Z,23.40
2017-10-19T13:49:28.986Z,20.17
2017-10-19T13:51:57.295Z,25.43
2017-10-19T13:54:25.584Z,22.20
2017-10-19T13:56:53.908Z,24.10
2017-10-19T13:59:22.502Z,21.43
2017-10-19T14:01:50.855Z,24.73
2017-10-19T14:04:19.150Z,21.90
2017-10-19T14:06:47.631Z,25.07
2017-10-19T14:09:15.905Z,29.53
2017-10-19T14:11:45.471Z,26.90
2017-10-19T14:14:14.556Z,23.20
2017-10-19T14:16:42.943Z,25.20
2017-10-19T14:19:11.307Z,24.87
2017-10-19T14:21:39.812Z,22.10
2017-10-19T14:24:08.276Z,24.80
2017-10-19T14:26:36.779Z,25.23
2017-10-19T14:29:05.257Z,20.73
2017-10-19T14:31:33.647Z,27.53
2017-10-19T14:34:01.965Z,26.83
2017-10-19T14:36:30.618Z,24.10
2017-10-19T14:38:58.907Z,26.93
2017-10-19T14:41:27.283Z,28.87
2017-10-19T14:43:55.670Z,33.87
2017-10-19T14:46:24.857Z,43.33
2017-10-19T14:48:53.419Z,46.00
2017-10-19T14:51:22.016Z,43.73
2017-10-19T14:53:50.522Z,49.07
2017-10-19T14:56:18.871Z,47.53
2017-10-19T14:58:47.167Z,49.37
2017-10-19T15:01:15.567Z,52.97
2017-10-19T15:03:44.121Z,55.87
2017-10-19T15:06:12.606Z,63.00
2017-10-19T15:08:40.927Z,65.27
2017-10-19T15:11:10.172Z,55.53
2017-10-19T15:13:38.500Z,76.63
2017-10-19T15:16:07.063Z,75.80
2017-10-19T15:18:35.468Z,59.13
2017-10-19T15:21:03.793Z,77.90
2017-10-19T15:23:32.327Z,73.03
2017-10-19T15:26:00.735Z,77.20
2017-10-19T15:28:29.068Z,62.37
2017-10-19T15:30:58.131Z,65.63
2017-10-19T15:33:28.169Z,78.17
2017-10-19T15:35:57.208Z,57.20
2017-10-19T15:38:26.234Z,63.13
2017-10-19T15:40:55.725Z,71.13
2017-10-19T15:43:24.013Z,63.80
2017-10-19T15:45:52.429Z,54.33
2017-10-19T15:48:20.814Z,63.83
2017-10-19T15:50:58.052Z,59.17
2017-10-19T15:53:26.403Z,57.40
2017-10-19T15:55:54.826Z,68.23
2017-10-19T15:58:23.135Z,72.13
2017-10-19T16:00:52.028Z,68.47
2017-10-19T16:03:20.517Z,55.70
2017-10-19T16:05:49.020Z,61.30
2017-10-19T16:08:17.303Z,69.77
2017-10-19T16:10:45.682Z,49.23
2017-10-19T16:13:14.083Z,62.83
2017-10-19T16:15:43.012Z,60.37
2017-10-19T16:18:11.299Z,65.70
2017-10-19T16:20:39.679Z,57.77
2017-10-19T16:23:07.972Z,54.90
2017-10-19T16:25:36.864Z,59.33
2017-10-19T16:28:05.324Z,61.57
2017-10-19T16:30:33.623Z,53.33
2017-10-19T16:33:02.659Z,43.03
2017-10-19T16:35:31.648Z,56.93
2017-10-19T16:37:59.979Z,62.93
2017-10-19T16:40:28.436Z,56.97
2017-10-19T16:42:58.303Z,54.33
2017-10-19T16:45:26.678Z,77.00
2017-10-19T16:47:55.021Z,59.83
2017-10-19T16:50:23.347Z,48.13
2017-10-19T16:52:51.721Z,57.60
2017-10-19T16:55:20.073Z,53.33
2017-10-19T16:57:48.384Z,45.50
2017-10-19T17:00:17.131Z,48.77
2017-10-19T17:02:45.703Z,46.80
2017-10-19T17:05:14.321Z,45.57
2017-10-19T17:07:42.600Z,45.60
2017-10-19T17:10:11.668Z,49.37
2017-10-19T17:12:39.943Z,70.60
2017-10-19T17:15:11.381Z,49.80
2017-10-19T17:17:39.808Z,49.87
2017-10-19T17:20:08.455Z,49.00
2017-10-19T17:22:36.805Z,54.73
2017-10-19T17:25:05.803Z,61.13
2017-10-19T17:27:34.344Z,48.37
2017-10-19T17:30:03.208Z,57.67
2017-10-19T17:32:33.152Z,41.50
2017-10-19T17:35:01.837Z,41.23
2017-10-19T17:37:30.933Z,56.17
2017-10-19T17:39:59.230Z,41.80
2017-10-19T17:42:27.634Z,39.13
2017-10-19T17:44:56.016Z,42.77
2017-10-19T17:47:25.276Z,45.10
2017-10-19T17:49:53.567Z,38.80
2017-10-19T17:52:22.108Z,47.60
2017-10-19T17:54:50.375Z,39.97
2017-10-19T17:57:18.763Z,43.17
2017-10-19T17:59:47.084Z,40.40
2017-10-19T18:02:16.408Z,38.30
2017-10-19T18:04:44.761Z,40.00
2017-10-19T18:07:13.236Z,40.83
2017-10-19T18:09:41.524Z,47.13
2017-10-19T18:12:10.764Z,41.00
2017-10-19T18:14:39.073Z,42.60
2017-10-19T18:17:07.503Z,36.97
2017-10-19T18:19:35.922Z,39.43
2017-10-19T18:22:04.305Z,43.77
2017-10-19T18:24:32.747Z,40.53
2017-10-19T18:27:01.160Z,37.03
2017-10-19T18:29:30.092Z,43.00
2017-10-19T18:31:58.856Z,50.73
2017-10-19T18:34:27.260Z,43.10
2017-10-19T18:36:55.667Z,37.83
2017-10-19T18:39:23.961Z,36.20
2017-10-19T18:41:52.420Z,36.17
2017-10-19T18:44:20.832Z,36.97
2017-10-19T18:46:49.132Z,41.53
2017-10-19T18:49:17.483Z,34.80
2017-10-19T18:51:46.616Z,40.77
2017-10-19T18:54:14.949Z,35.70
2017-10-19T18:56:43.636Z,42.73
2017-10-19T18:59:12.073Z,35.53
2017-10-19T19:01:40.404Z,34.40
2017-10-19T19:04:08.832Z,36.37
2017-10-19T19:06:37.385Z,40.10
2017-10-19T19:09:06.101Z,36.50
2017-10-19T19:11:34.415Z,38.10
2017-10-19T19:14:02.881Z,37.83
2017-10-19T19:16:31.560Z,59.97
2017-10-19T19:19:00.856Z,38.67
2017-10-19T19:21:29.256Z,38.10
2017-10-19T19:23:57.639Z,39.03
2017-10-19T19:26:26.631Z,35.20
2017-10-19T19:28:56.822Z,52.03
2017-10-19T19:31:25.335Z,43.33
2017-10-19T19:33:53.757Z,52.50
2017-10-19T19:36:22.328Z,41.73
2017-10-19T19:38:50.643Z,41.07
2017-10-19T19:41:19.436Z,39.07
2017-10-19T19:43:47.791Z,43.40
2017-10-19T19:46:16.224Z,41.17
2017-10-19T19:48:44.520Z,33.80
2017-10-19T19:51:12.995Z,35.50
2017-10-19T19:53:41.332Z,40.53
2017-10-19T19:56:10.120Z,43.77
2017-10-19T19:58:38.541Z,39.80
2017-10-19T20:01:07.073Z,39.43
2017-10-19T20:03:35.564Z,37.47
2017-10-19T20:06:04.268Z,37.00
2017-10-19T20:08:32.942Z,36.30
2017-10-19T20:11:02.300Z,37.67
2017-10-19T20:13:31.364Z,33.57
2017-10-19T20:16:00.443Z,41.40
2017-10-19T20:18:29.487Z,30.27
2017-10-19T20:20:58.823Z,30.60
2017-10-19T20:23:27.272Z,51.00
2017-10-19T20:25:55.627Z,31.93
2017-10-19T20:28:23.963Z,29.67
2017-10-19T20:30:52.291Z,31.87
2017-10-19T20:33:21.243Z,30.40
2017-10-19T20:35:50.329Z,41.93
2017-10-19T20:38:18.756Z,34.03
2017-10-19T20:40:47.079Z,31.60
2017-10-19T20:43:15.365Z,27.10
2017-10-19T20:45:43.806Z,26.80
2017-10-19T20:48:12.342Z,27.40
2017-10-19T20:50:40.799Z,27.13
2017-10-19T20:53:09.240Z,30.40
2017-10-19T20:55:37.547Z,26.40
2017-10-19T20:58:07.247Z,24.70
2017-10-19T21:00:35.600Z,31.27
2017-10-19T21:03:03.980Z,29.50
2017-10-19T21:05:32.515Z,30.03
2017-10-19T21:08:00.881Z,26.63
2017-10-19T21:10:29.864Z,25.33
2017-10-19T21:12:58.447Z,26.53
2017-10-19T21:15:26.810Z,29.53
2017-10-19T21:17:55.967Z,38.37
2017-10-19T21:20:25.204Z,39.17
2017-10-19T21:22:54.407Z,31.03
2017-10-19T21:25:22.729Z,29.10
2017-10-19T21:27:51.221Z,31.43
2017-10-19T21:30:19.782Z,29.80
2017-10-19T21:32:48.350Z,30.43
2017-10-19T21:35:16.673Z,30.50
2017-10-19T21:37:47.551Z,30.70
2017-10-19T21:40:15.876Z,29.20
2017-10-19T21:42:44.207Z,29.83
2017-10-19T21:45:12.713Z,30.23
2017-10-19T21:47:41.115Z,25.47
2017-10-19T21:50:09.498Z,29.77
2017-10-19T21:52:37.854Z,25.43
2017-10-19T21:55:07.336Z,30.63
2017-10-19T21:57:35.628Z,30.13
2017-10-19T22:00:05.093Z,29.73
2017-10-19T22:02:33.398Z,29.00
2017-10-19T22:05:01.944Z,22.73
2017-10-19T22:07:30.440Z,28.80
2017-10-19T22:09:58.911Z,33.00
2017-10-19T22:12:27.260Z,21.80
2017-10-19T22:14:55.597Z,27.20
2017-10-19T22:17:24.120Z,28.00
2017-10-19T22:19:52.408Z,22.87
2017-10-19T22:22:20.743Z,24.10
2017-10-19T22:24:49.033Z,20.93
2017-10-19T22:27:17.512Z,23.67
2017-10-19T22:29:45.817Z,26.23
2017-10-19T22:32:14.252Z,25.17
2017-10-19T22:34:42.710Z,27.30
2017-10-19T22:37:11.765Z,25.83
2017-10-19T22:39:40.625Z,21.30
2017-10-19T22:42:08.935Z,23.47
2017-10-19T22:44:37.463Z,22.03
2017-10-19T22:47:05.950Z,20.77
2017-10-19T22:49:34.871Z,21.03
2017-10-19T22:52:03.181Z,23.90
2017-10-19T22:54:31.443Z,18.90
2017-10-19T22:56:59.807Z,24.67
2017-10-19T22:59:28.116Z,22.87
2017-10-19T23:01:56.655Z,19.47
2017-10-19T23:04:25.000Z,20.93
2017-10-19T23:06:53.411Z,19.47
2017-10-19T23:09:21.715Z,20.57
2017-10-19T23:11:50.052Z,19.30
2017-10-19T23:14:18.551Z,20.67
2017-10-19T23:16:47.093Z,19.50
2017-10-19T23:19:15.959Z,23.97
2017-10-19T23:21:44.615Z,20.60
2017-10-19T23:24:12.932Z,22.10
2017-10-19T23:26:41.235Z,21.47
2017-10-19T23:29:09.683Z,20.43
2017-10-19T23:31:37.994Z,18.63
2017-10-19T23:34:06.377Z,21.43
2017-10-19T23:36:34.685Z,18.40
2017-10-19T23:39:03.030Z,19.70
2017-10-19T23:41:31.391Z,17.30
2017-10-19T23:43:59.672Z,19.57
2017-10-19T23:46:28.060Z,20.87
2017-10-19T23:48:56.375Z,20.20
2017-10-19T23:51:24.673Z,21.70
2017-10-19T23:53:52.947Z,17.77
2017-10-19T23:56:21.349Z,21.60
2017-10-19T23:58:49.812Z,22.80
